Time;durP1;ratioP1;P1;durP2;ratioP2;P2;SDS_P1;SDS_P2;PMS_P1;PMS_P2;Temp;Humidity;BMP_temperature;BMP_pressure;BME280_temperature;BME280_humidity;BME280_pressure;Samples;Min_cycle;Max_cycle;Signal;HPM_P1;HPM_P2
2023/03/11 00:01:39;;;;;;;4.37;2.30;;;;;;;;;;5054517;28;20204;-71
2023/03/11 00:04:05;;;;;;;10.73;2.57;;;;;;;;;;5056944;28;20197;-71
2023/03/11 00:06:33;;;;;;;9.87;2.50;;;;;;;;;;5060667;28;20510;-71
2023/03/11 00:08:58;;;;;;;4.90;2.50;;;;;;;;;;5062686;28;20182;-71
2023/03/11 00:11:24;;;;;;;9.93;2.80;;;;;;;;;;5058405;28;20265;-71
2023/03/11 00:13:49;;;;;;;8.10;2.40;;;;;;;;;;5058203;28;20196;-71
2023/03/11 00:16:14;;;;;;;8.80;2.07;;;;;;;;;;5054260;28;20609;-71
2023/03/11 00:18:40;;;;;;;7.17;2.13;;;;;;;;;;5047574;28;20710;-71
2023/03/11 00:21:14;;;;;;;6.63;2.10;;;;;;;;;;5049518;28;20537;-71
2023/03/11 00:23:40;;;;;;;7.13;2.10;;;;;;;;;;5057620;28;20264;-71
2023/03/11 00:26:05;;;;;;;11.97;1.90;;;;;;;;;;5052058;28;20338;-71
2023/03/11 00:28:30;;;;;;;5.23;2.03;;;;;;;;;;5047651;28;20190;-71
2023/03/11 00:30:56;;;;;;;7.97;2.07;;;;;;;;;;5050977;28;20198;-71
2023/03/11 00:33:22;;;;;;;8.07;1.90;;;;;;;;;;5053776;28;20193;-71
2023/03/11 00:35:49;;;;;;;4.83;1.50;;;;;;;;;;5043819;28;20640;-71
2023/03/11 00:38:16;;;;;;;7.50;2.13;;;;;;;;;;5049038;28;20294;-71
2023/03/11 00:40:43;;;;;;;8.03;1.97;;;;;;;;;;5055729;28;20181;-71
2023/03/11 00:43:09;;;;;;;4.20;1.57;;;;;;;;;;5061128;28;20268;-71
2023/03/11 00:45:34;;;;;;;6.17;1.97;;;;;;;;;;5058467;28;20691;-71
2023/03/11 00:47:59;;;;;;;4.80;1.57;;;;;;;;;;5053254;28;20561;-71
2023/03/11 00:50:28;;;;;;;9.23;1.80;;;;;;;;;;5061082;28;20726;-71
2023/03/11 00:52:54;;;;;;;5.97;1.83;;;;;;;;;;5058471;28;20204;-71
2023/03/11 00:55:23;;;;;;;5.67;1.97;;;;;;;;;;5057768;28;20186;-71
2023/03/11 00:57:53;;;;;;;4.57;1.60;;;;;;;;;;5062850;28;20189;-71
2023/03/11 01:00:22;;;;;;;6.30;2.00;;;;;;;;;;5064337;28;20216;-71
2023/03/11 01:02:47;;;;;;;6.07;2.00;;;;;;;;;;5059279;28;20194;-71
2023/03/11 01:05:13;;;;;;;8.17;1.60;;;;;;;;;;5068422;28;20195;-71
2023/03/11 01:07:38;;;;;;;13.60;2.10;;;;;;;;;;5059943;28;20189;-71
2023/03/11 01:10:07;;;;;;;4.73;1.67;;;;;;;;;;5059078;28;20182;-71
2023/03/11 01:12:32;;;;;;;7.30;3.20;;;;;;;;;;5058202;28;20276;-71
2023/03/11 01:14:58;;;;;;;5.30;2.00;;;;;;;;;;5063850;28;20322;-71
2023/03/11 01:17:23;;;;;;;5.10;1.97;;;;;;;;;;5049126;28;20185;-71
2023/03/11 01:19:49;;;;;;;4.27;1.63;;;;;;;;;;5063973;28;20208;-71
2023/03/11 01:22:15;;;;;;;4.47;1.93;;;;;;;;;;5059673;28;20271;-71
2023/03/11 01:24:41;;;;;;;7.77;2.00;;;;;;;;;;5059174;28;20712;-71
2023/03/11 01:27:07;;;;;;;7.60;2.00;;;;;;;;;;5056483;28;20272;-71
2023/03/11 01:29:32;;;;;;;4.57;2.00;;;;;;;;;;5059161;28;20537;-71
2023/03/11 01:31:58;;;;;;;7.93;2.00;;;;;;;;;;5068112;28;20705;-70
2023/03/11 01:34:24;;;;;;;8.47;1.87;;;;;;;;;;5051912;28;20275;-71
2023/03/11 01:36:49;;;;;;;6.37;1.83;;;;;;;;;;5065815;28;20184;-70
2023/03/11 01:39:14;;;;;;;5.60;1.70;;;;;;;;;;5064586;28;20997;-71
2023/03/11 01:41:40;;;;;;;10.80;1.90;;;;;;;;;;5052621;28;20280;-71
2023/03/11 01:44:06;;;;;;;11.23;1.70;;;;;;;;;;5055225;28;20522;-70
2023/03/11 01:46:52;;;;;;;9.33;1.80;;;;;;;;;;5050544;28;20204;-70
2023/03/11 01:49:21;;;;;;;6.20;1.83;;;;;;;;;;5056475;28;20666;-70
2023/03/11 01:51:50;;;;;;;5.37;1.60;;;;;;;;;;5059194;28;20225;-70
2023/03/11 01:54:24;;;;;;;8.53;1.83;;;;;;;;;;5059468;28;20283;-70
2023/03/11 01:56:51;;;;;;;10.57;1.63;;;;;;;;;;5057029;28;20250;-71
2023/03/11 01:59:21;;;;;;;6.10;2.03;;;;;;;;;;5056354;28;20204;-71
2023/03/11 02:01:58;;;;;;;6.10;1.97;;;;;;;;;;5066270;28;20690;-71
2023/03/11 02:04:24;;;;;;;7.40;1.60;;;;;;;;;;5060818;28;20678;-71
2023/03/11 02:06:50;;;;;;;9.23;1.47;;;;;;;;;;5063454;28;20275;-71
2023/03/11 02:09:15;;;;;;;8.27;2.07;;;;;;;;;;5050819;28;20272;-71
2023/03/11 02:11:41;;;;;;;8.47;2.07;;;;;;;;;;5063712;28;20272;-71
2023/03/11 02:14:08;;;;;;;10.67;1.57;;;;;;;;;;5060147;28;20795;-71
2023/03/11 02:16:33;;;;;;;8.20;1.20;;;;;;;;;;5054577;28;20529;-71
2023/03/11 02:19:08;;;;;;;12.10;1.87;;;;;;;;;;5060646;28;20208;-71
2023/03/11 02:21:34;;;;;;;10.80;1.63;;;;;;;;;;5064757;28;20215;-72
2023/03/11 02:24:21;;;;;;;6.17;1.50;;;;;;;;;;5045976;28;20201;-71
2023/03/11 02:26:59;;;;;;;4.67;1.50;;;;;;;;;;5058699;28;20189;-71
2023/03/11 02:29:26;;;;;;;9.20;1.23;;;;;;;;;;5056177;28;20193;-71
2023/03/11 02:31:52;;;;;;;13.80;1.70;;;;;;;;;;5069172;28;20203;-71
2023/03/11 02:34:27;;;;;;;6.50;1.73;;;;;;;;;;5059538;28;20587;-72
2023/03/11 02:36:53;;;;;;;4.73;1.43;;;;;;;;;;5050428;28;20277;-71
2023/03/11 02:39:33;;;;;;;8.20;1.43;;;;;;;;;;5051075;28;20934;-72
2023/03/11 02:42:03;;;;;;;12.57;1.77;;;;;;;;;;5059532;28;20225;-72
2023/03/11 02:44:28;;;;;;;11.03;1.57;;;;;;;;;;5055327;28;20555;-72
2023/03/11 02:46:53;;;;;;;6.53;1.17;;;;;;;;;;5050167;28;20194;-72
2023/03/11 02:49:21;;;;;;;3.80;1.40;;;;;;;;;;5051499;28;20185;-72
2023/03/11 02:51:46;;;;;;;4.00;1.40;;;;;;;;;;5050741;28;20186;-72
2023/03/11 02:54:11;;;;;;;6.23;1.23;;;;;;;;;;5063802;28;20196;-72
2023/03/11 02:56:37;;;;;;;4.40;1.27;;;;;;;;;;5059727;28;20192;-72
2023/03/11 02:59:02;;;;;;;7.43;1.40;;;;;;;;;;5068979;28;20219;-72
2023/03/11 03:01:28;;;;;;;6.43;1.43;;;;;;;;;;5055530;28;20239;-71
2023/03/11 03:03:53;;;;;;;8.80;1.70;;;;;;;;;;5065739;28;20193;-71
2023/03/11 03:06:19;;;;;;;6.07;1.63;;;;;;;;;;5067164;28;20262;-71
2023/03/11 03:08:45;;;;;;;5.73;1.53;;;;;;;;;;5062766;28;20189;-71
2023/03/11 03:11:10;;;;;;;7.73;1.80;;;;;;;;;;5052360;28;20277;-71
2023/03/11 03:13:35;;;;;;;11.67;1.70;;;;;;;;;;5058764;28;20192;-71
2023/03/11 03:16:01;;;;;;;12.43;1.40;;;;;;;;;;5059747;28;20182;-71
2023/03/11 03:18:27;;;;;;;8.73;1.47;;;;;;;;;;5053741;28;20316;-72
2023/03/11 03:20:52;;;;;;;10.10;1.30;;;;;;;;;;5057018;28;20182;-71
2023/03/11 03:23:19;;;;;;;6.50;1.93;;;;;;;;;;5054376;28;20242;-71
2023/03/11 03:25:45;;;;;;;16.70;1.67;;;;;;;;;;5063260;28;20182;-71
2023/03/11 03:28:13;;;;;;;3.43;1.03;;;;;;;;;;5050773;28;20581;-71
2023/03/11 03:30:39;;;;;;;9.33;1.13;;;;;;;;;;5059094;28;20195;-72
2023/03/11 03:33:05;;;;;;;3.97;0.90;;;;;;;;;;5068302;28;20283;-72
2023/03/11 03:35:32;;;;;;;5.30;1.60;;;;;;;;;;5039763;28;20706;-72
2023/03/11 03:37:58;;;;;;;3.60;0.83;;;;;;;;;;5044046;28;20656;-72
2023/03/11 03:40:23;;;;;;;8.43;1.20;;;;;;;;;;5055272;28;20232;-71
2023/03/11 03:42:49;;;;;;;7.77;1.10;;;;;;;;;;5068106;28;20216;-71
2023/03/11 03:45:14;;;;;;;9.47;1.87;;;;;;;;;;5037173;28;20189;-71
2023/03/11 03:47:39;;;;;;;5.70;1.17;;;;;;;;;;5059777;28;20553;-71
2023/03/11 03:50:08;;;;;;;5.83;1.10;;;;;;;;;;5065217;28;20197;-71
2023/03/11 03:52:35;;;;;;;5.70;1.10;;;;;;;;;;5051211;28;20182;-71
2023/03/11 03:55:00;;;;;;;7.27;1.30;;;;;;;;;;5047374;28;20203;-72
2023/03/11 03:57:27;;;;;;;5.70;1.17;;;;;;;;;;5049823;28;20689;-71
2023/03/11 03:59:53;;;;;;;7.57;1.50;;;;;;;;;;5055284;28;20575;-72
2023/03/11 04:02:18;;;;;;;6.57;1.10;;;;;;;;;;5057863;28;20196;-71
2023/03/11 04:04:43;;;;;;;7.83;1.57;;;;;;;;;;5052754;28;20193;-71
2023/03/11 04:07:09;;;;;;;6.73;0.70;;;;;;;;;;5068967;28;20184;-71
2023/03/11 04:09:37;;;;;;;7.10;1.40;;;;;;;;;;5058370;28;20181;-71
2023/03/11 04:12:02;;;;;;;7.77;1.03;;;;;;;;;;5062811;28;20192;-71
2023/03/11 04:14:28;;;;;;;8.10;1.20;;;;;;;;;;5049137;28;20216;-72
2023/03/11 04:16:53;;;;;;;6.23;0.90;;;;;;;;;;5057010;28;20276;-71
2023/03/11 04:19:18;;;;;;;6.63;1.20;;;;;;;;;;5060778;28;20624;-71
2023/03/11 04:21:44;;;;;;;6.77;1.20;;;;;;;;;;5066046;28;20268;-71
2023/03/11 04:24:09;;;;;;;5.07;0.90;;;;;;;;;;5049956;28;20185;-71
2023/03/11 04:26:35;;;;;;;3.57;0.90;;;;;;;;;;5060413;28;20204;-71
2023/03/11 04:29:00;;;;;;;6.23;1.00;;;;;;;;;;5054591;28;20201;-71
2023/03/11 04:31:25;;;;;;;9.13;1.00;;;;;;;;;;5066208;28;20853;-71
2023/03/11 04:33:51;;;;;;;5.20;0.87;;;;;;;;;;5054506;28;20328;-71
2023/03/11 04:36:16;;;;;;;4.43;1.07;;;;;;;;;;5058122;28;20190;-71
2023/03/11 04:38:42;;;;;;;5.30;1.00;;;;;;;;;;5068548;28;20217;-71
2023/03/11 04:41:07;;;;;;;3.97;1.17;;;;;;;;;;5060466;28;20182;-71
2023/03/11 04:43:33;;;;;;;6.20;1.33;;;;;;;;;;5056502;28;20572;-71
2023/03/11 04:45:58;;;;;;;4.33;1.00;;;;;;;;;;5051134;28;20222;-71
2023/03/11 04:48:25;;;;;;;18.33;1.50;;;;;;;;;;5070646;28;20180;-71
2023/03/11 04:50:51;;;;;;;6.40;1.10;;;;;;;;;;5063022;28;20247;-71
2023/03/11 04:53:17;;;;;;;6.70;1.23;;;;;;;;;;5057274;28;20189;-71
2023/03/11 04:55:42;;;;;;;4.93;1.30;;;;;;;;;;5053668;28;20259;-71
2023/03/11 04:58:07;;;;;;;6.43;1.03;;;;;;;;;;5068944;28;20216;-71
2023/03/11 05:00:33;;;;;;;6.10;1.20;;;;;;;;;;5063511;28;20216;-71
2023/03/11 05:02:58;;;;;;;8.47;1.17;;;;;;;;;;5057913;28;20267;-72
2023/03/11 05:05:24;;;;;;;6.97;1.17;;;;;;;;;;5063415;28;20195;-71
2023/03/11 05:07:49;;;;;;;5.07;1.07;;;;;;;;;;5062925;28;21212;-71
2023/03/11 05:10:21;;;;;;;3.47;1.10;;;;;;;;;;5040297;28;20636;-71
2023/03/11 05:12:50;;;;;;;8.00;1.27;;;;;;;;;;5059620;28;20192;-71
2023/03/11 05:15:16;;;;;;;3.30;0.87;;;;;;;;;;5069120;28;20217;-71
2023/03/11 05:17:41;;;;;;;4.07;1.10;;;;;;;;;;5062030;28;20184;-71
2023/03/11 05:20:08;;;;;;;4.70;1.07;;;;;;;;;;5052934;28;20270;-71
2023/03/11 05:22:33;;;;;;;8.23;1.00;;;;;;;;;;5053542;28;20531;-71
2023/03/11 05:24:59;;;;;;;3.60;1.17;;;;;;;;;;5051426;28;20192;-71
2023/03/11 05:27:24;;;;;;;11.37;1.20;;;;;;;;;;5058550;28;20188;-71
2023/03/11 05:29:50;;;;;;;5.73;1.30;;;;;;;;;;5056508;28;20190;-71
2023/03/11 05:32:15;;;;;;;7.63;1.20;;;;;;;;;;5051326;28;20186;-71
2023/03/11 05:34:41;;;;;;;3.43;1.20;;;;;;;;;;5050526;28;20240;-71
2023/03/11 05:37:07;;;;;;;2.73;1.10;;;;;;;;;;5060509;28;20181;-71
2023/03/11 05:39:33;;;;;;;4.17;1.03;;;;;;;;;;5050665;28;20669;-71
2023/03/11 05:41:59;;;;;;;9.13;1.23;;;;;;;;;;5061891;28;20263;-70
2023/03/11 05:44:25;;;;;;;5.63;1.23;;;;;;;;;;5060558;28;20504;-70
2023/03/11 05:46:50;;;;;;;5.40;1.03;;;;;;;;;;5049965;28;20262;-70
2023/03/11 05:49:15;;;;;;;5.10;1.00;;;;;;;;;;5067827;28;20185;-70
2023/03/11 05:51:41;;;;;;;6.50;1.10;;;;;;;;;;5061995;28;20424;-70
2023/03/11 05:54:13;;;;;;;7.83;1.20;;;;;;;;;;5053617;28;20200;-70
2023/03/11 05:56:40;;;;;;;6.70;0.90;;;;;;;;;;5061919;28;20193;-69
2023/03/11 05:59:05;;;;;;;9.93;1.30;;;;;;;;;;5056829;28;20208;-69
2023/03/11 06:01:31;;;;;;;3.40;0.90;;;;;;;;;;5054335;28;20209;-70
2023/03/11 06:03:56;;;;;;;8.67;1.30;;;;;;;;;;5058435;28;20199;-69
2023/03/11 06:06:22;;;;;;;3.47;0.90;;;;;;;;;;5061988;28;20575;-70
2023/03/11 06:08:49;;;;;;;8.30;1.00;;;;;;;;;;5058037;28;20263;-69
2023/03/11 06:11:15;;;;;;;2.53;1.10;;;;;;;;;;5036732;28;20197;-68
2023/03/11 06:13:40;;;;;;;2.13;0.97;;;;;;;;;;5057072;28;20510;-68
2023/03/11 06:16:07;;;;;;;2.53;1.00;;;;;;;;;;5052387;28;20186;-68
2023/03/11 06:18:33;;;;;;;6.50;1.20;;;;;;;;;;5061997;28;20181;-68
2023/03/11 06:20:59;;;;;;;5.20;1.50;;;;;;;;;;5054474;28;20204;-68
2023/03/11 06:23:25;;;;;;;6.77;1.40;;;;;;;;;;5063156;28;20192;-69
2023/03/11 06:26:03;;;;;;;6.67;1.47;;;;;;;;;;5062414;28;20564;-69
2023/03/11 06:28:29;;;;;;;8.93;1.40;;;;;;;;;;5053707;28;20654;-70
2023/03/11 06:30:57;;;;;;;5.70;1.40;;;;;;;;;;5068684;28;20199;-70
2023/03/11 06:33:23;;;;;;;3.80;1.10;;;;;;;;;;5054870;28;20196;-69
2023/03/11 06:35:56;;;;;;;4.53;1.53;;;;;;;;;;5060419;28;20275;-69
2023/03/11 06:38:22;;;;;;;5.67;1.90;;;;;;;;;;5053043;28;20205;-69
2023/03/11 06:40:47;;;;;;;2.47;1.23;;;;;;;;;;5061154;28;20195;-69
2023/03/11 06:43:13;;;;;;;3.43;1.37;;;;;;;;;;5052764;28;20193;-69
2023/03/11 06:45:38;;;;;;;3.23;1.47;;;;;;;;;;5053526;28;20188;-69
2023/03/11 06:48:04;;;;;;;8.63;2.23;;;;;;;;;;5050196;28;20181;-69
2023/03/11 06:50:29;;;;;;;6.70;1.37;;;;;;;;;;5049678;28;20182;-69
2023/03/11 06:52:56;;;;;;;12.50;1.93;;;;;;;;;;5049844;28;20224;-69
2023/03/11 06:55:21;;;;;;;2.17;1.00;;;;;;;;;;5061425;28;20272;-69
2023/03/11 06:57:47;;;;;;;9.27;1.90;;;;;;;;;;5060534;28;20331;-69
2023/03/11 07:00:13;;;;;;;5.33;1.60;;;;;;;;;;5051799;28;20274;-68
2023/03/11 07:02:38;;;;;;;11.67;2.07;;;;;;;;;;5061694;28;20189;-69
2023/03/11 07:05:04;;;;;;;4.83;1.70;;;;;;;;;;5055530;28;20193;-69
2023/03/11 07:07:30;;;;;;;7.93;1.70;;;;;;;;;;5057092;28;20609;-69
2023/03/11 07:09:56;;;;;;;9.60;1.87;;;;;;;;;;5064155;28;20185;-69
2023/03/11 07:12:24;;;;;;;8.97;1.63;;;;;;;;;;5056667;28;20190;-68
2023/03/11 07:14:56;;;;;;;9.30;1.53;;;;;;;;;;5057495;28;20181;-69
2023/03/11 07:17:21;;;;;;;10.53;1.90;;;;;;;;;;5053110;28;20192;-69
2023/03/11 07:19:47;;;;;;;6.43;2.00;;;;;;;;;;5049824;28;20217;-69
2023/03/11 07:22:13;;;;;;;5.70;1.53;;;;;;;;;;5057604;28;20199;-70
2023/03/11 07:24:39;;;;;;;4.17;1.50;;;;;;;;;;5054555;28;20537;-70
2023/03/11 07:27:04;;;;;;;6.33;1.70;;;;;;;;;;5058305;28;20220;-70
2023/03/11 07:29:29;;;;;;;4.43;1.87;;;;;;;;;;5052945;28;20185;-69
2023/03/11 07:31:55;;;;;;;3.77;1.23;;;;;;;;;;5063059;28;20190;-69
2023/03/11 07:34:20;;;;;;;8.30;1.30;;;;;;;;;;5051416;28;20593;-69
2023/03/11 07:36:45;;;;;;;4.50;1.10;;;;;;;;;;5067133;28;20196;-69
2023/03/11 07:39:16;;;;;;;2.07;1.47;;;;;;;;;;5061549;28;20697;-70
2023/03/11 07:41:43;;;;;;;5.23;1.20;;;;;;;;;;5059548;28;20239;-69
2023/03/11 07:44:11;;;;;;;4.53;1.30;;;;;;;;;;5049182;28;20196;-69
2023/03/11 07:46:36;;;;;;;5.43;1.17;;;;;;;;;;5032863;28;20315;-69
2023/03/11 07:49:02;;;;;;;5.73;1.57;;;;;;;;;;5059213;28;20680;-70
2023/03/11 07:51:30;;;;;;;5.43;1.27;;;;;;;;;;5047652;28;20279;-70
2023/03/11 07:53:58;;;;;;;5.67;1.93;;;;;;;;;;5054558;28;20239;-70
2023/03/11 07:56:25;;;;;;;6.47;1.50;;;;;;;;;;5057898;28;20189;-69
2023/03/11 07:58:51;;;;;;;8.83;1.30;;;;;;;;;;5056563;28;20577;-70
2023/03/11 08:01:20;;;;;;;6.20;1.43;;;;;;;;;;5049796;28;20240;-69
2023/03/11 08:03:48;;;;;;;7.70;1.10;;;;;;;;;;5053257;28;20252;-70
2023/03/11 08:06:19;;;;;;;8.97;1.23;;;;;;;;;;5059192;28;20197;-69
2023/03/11 08:08:45;;;;;;;4.03;1.10;;;;;;;;;;5055071;28;20180;-69
2023/03/11 08:11:12;;;;;;;9.27;1.57;;;;;;;;;;5057983;28;20613;-69
2023/03/11 08:13:39;;;;;;;2.93;1.10;;;;;;;;;;5056997;28;20634;-69
2023/03/11 08:16:05;;;;;;;2.93;1.20;;;;;;;;;;5057880;28;20231;-69
2023/03/11 08:18:32;;;;;;;4.63;0.97;;;;;;;;;;5048654;28;20189;-69
2023/03/11 08:20:58;;;;;;;5.27;1.50;;;;;;;;;;5054793;28;20184;-69
2023/03/11 08:23:23;;;;;;;5.83;1.30;;;;;;;;;;5055928;28;20193;-70
2023/03/11 08:25:48;;;;;;;6.93;1.13;;;;;;;;;;5055729;28;20553;-70
2023/03/11 08:28:14;;;;;;;4.27;1.10;;;;;;;;;;5055710;28;20397;-70
2023/03/11 08:30:40;;;;;;;7.27;1.37;;;;;;;;;;5050535;28;20193;-70
2023/03/11 08:33:05;;;;;;;4.97;0.90;;;;;;;;;;5051458;28;20250;-71
2023/03/11 08:35:31;;;;;;;4.87;0.90;;;;;;;;;;5050239;28;20281;-71
2023/03/11 08:37:56;;;;;;;7.50;0.93;;;;;;;;;;5049161;28;20193;-71
2023/03/11 08:40:22;;;;;;;2.90;0.77;;;;;;;;;;5049250;28;20724;-70
2023/03/11 08:42:48;;;;;;;7.30;1.27;;;;;;;;;;5055593;28;20192;-72
2023/03/11 08:45:13;;;;;;;3.47;0.80;;;;;;;;;;5057352;28;20517;-71
2023/03/11 08:47:39;;;;;;;4.00;0.87;;;;;;;;;;5049413;28;20543;-72
2023/03/11 08:50:12;;;;;;;3.43;1.10;;;;;;;;;;5038046;28;20185;-71
2023/03/11 08:52:38;;;;;;;4.73;1.03;;;;;;;;;;5058728;28;20193;-71
2023/03/11 08:55:04;;;;;;;6.07;0.93;;;;;;;;;;5060073;28;20250;-72
2023/03/11 08:57:30;;;;;;;3.77;1.00;;;;;;;;;;5053247;28;20279;-72
2023/03/11 08:59:57;;;;;;;6.10;0.97;;;;;;;;;;5062820;28;20661;-72
2023/03/11 09:02:24;;;;;;;4.00;1.03;;;;;;;;;;5058217;28;20544;-73
2023/03/11 09:04:49;;;;;;;5.90;0.90;;;;;;;;;;5076993;28;20200;-73
2023/03/11 09:07:15;;;;;;;3.47;1.20;;;;;;;;;;5047701;28;20193;-74
2023/03/11 09:09:40;;;;;;;2.93;0.77;;;;;;;;;;5051742;28;20185;-74
2023/03/11 09:12:06;;;;;;;8.03;1.10;;;;;;;;;;5048636;28;20559;-73
2023/03/11 09:14:32;;;;;;;4.90;1.03;;;;;;;;;;5050182;28;20315;-73
2023/03/11 09:16:57;;;;;;;2.43;0.83;;;;;;;;;;5053255;28;20268;-72
2023/03/11 09:19:23;;;;;;;3.60;0.90;;;;;;;;;;5047499;28;20587;-73
2023/03/11 09:21:48;;;;;;;5.20;0.90;;;;;;;;;;5048688;28;20196;-73
2023/03/11 09:24:13;;;;;;;4.67;0.90;;;;;;;;;;5048632;28;20193;-73
2023/03/11 09:26:39;;;;;;;7.37;1.20;;;;;;;;;;5054729;28;20231;-74
2023/03/11 09:29:04;;;;;;;3.47;1.50;;;;;;;;;;5061627;28;20188;-74
2023/03/11 09:31:30;;;;;;;4.77;1.20;;;;;;;;;;5063134;28;20199;-74
2023/03/11 09:33:55;;;;;;;7.87;1.50;;;;;;;;;;5065274;28;20231;-74
2023/03/11 09:36:21;;;;;;;2.90;0.80;;;;;;;;;;5056363;28;20204;-74
2023/03/11 09:38:47;;;;;;;4.37;0.80;;;;;;;;;;5058663;28;20216;-74
2023/03/11 09:41:16;;;;;;;4.20;1.00;;;;;;;;;;5068012;28;20189;-75
2023/03/11 09:44:10;;;;;;;3.47;0.70;;;;;;;;;;5052419;28;20234;-75
2023/03/11 09:46:54;;;;;;;4.90;0.93;;;;;;;;;;5063436;28;20197;-76
2023/03/11 09:49:25;;;;;;;3.67;0.73;;;;;;;;;;5066232;28;20254;-77
2023/03/11 09:52:09;;;;;;;2.13;0.90;;;;;;;;;;5043859;28;20251;-77
2023/03/11 09:54:51;;;;;;;4.10;0.80;;;;;;;;;;5058289;28;20208;-76
2023/03/11 09:57:30;;;;;;;4.57;0.70;;;;;;;;;;5056249;28;20201;-77
2023/03/11 09:59:56;;;;;;;6.93;1.80;;;;;;;;;;5063343;28;20225;-78
2023/03/11 10:02:25;;;;;;;8.03;1.03;;;;;;;;;;5064025;28;20274;-79
2023/03/11 10:05:12;;;;;;;5.17;0.80;;;;;;;;;;5061199;28;20543;-78
2023/03/11 10:07:40;;;;;;;10.33;1.33;;;;;;;;;;5046841;28;20548;-76
2023/03/11 10:10:10;;;;;;;4.67;0.80;;;;;;;;;;5065716;28;20185;-76
2023/03/11 10:13:11;;;;;;;5.23;0.90;;;;;;;;;;5063183;28;20192;-75
2023/03/11 10:15:54;;;;;;;5.30;0.80;;;;;;;;;;5067507;28;20883;-77
2023/03/11 10:18:51;;;;;;;3.77;0.87;;;;;;;;;;5064837;28;20196;-76
2023/03/11 10:21:31;;;;;;;3.23;0.83;;;;;;;;;;5065224;28;20280;-76
2023/03/11 10:24:09;;;;;;;1.97;0.57;;;;;;;;;;5063950;28;20208;-76
2023/03/11 10:26:53;;;;;;;7.03;1.03;;;;;;;;;;5062998;28;20184;-75
2023/03/11 10:30:09;;;;;;;9.93;0.87;;;;;;;;;;5066592;28;20198;-75
2023/03/11 10:32:43;;;;;;;3.47;0.50;;;;;;;;;;5048348;28;20255;-74
2023/03/11 10:35:20;;;;;;;5.00;0.80;;;;;;;;;;5048373;28;20334;-74
2023/03/11 10:37:53;;;;;;;4.63;0.87;;;;;;;;;;5065959;28;20189;-73
2023/03/11 10:40:31;;;;;;;3.23;0.73;;;;;;;;;;5060274;28;20213;-73
2023/03/11 10:43:01;;;;;;;3.93;0.57;;;;;;;;;;5068558;28;20469;-74
2023/03/11 10:45:31;;;;;;;6.67;1.10;;;;;;;;;;5063517;28;20703;-74
2023/03/11 10:47:57;;;;;;;6.93;1.20;;;;;;;;;;5064983;28;20185;-74
2023/03/11 10:50:22;;;;;;;6.73;0.90;;;;;;;;;;5064482;28;20204;-73
2023/03/11 10:53:14;;;;;;;3.80;0.60;;;;;;;;;;5066199;28;20199;-72
2023/03/11 10:55:51;;;;;;;8.57;0.90;;;;;;;;;;5065851;28;20190;-72
2023/03/11 10:58:28;;;;;;;4.33;0.63;;;;;;;;;;5060178;28;20197;-72
2023/03/11 11:01:06;;;;;;;6.07;0.90;;;;;;;;;;5063664;28;20290;-72
2023/03/11 11:03:32;;;;;;;7.60;0.60;;;;;;;;;;5064286;28;20197;-73
2023/03/11 11:06:02;;;;;;;5.87;0.70;;;;;;;;;;5062184;28;20177;-72
2023/03/11 11:08:27;;;;;;;5.97;0.90;;;;;;;;;;5062206;28;20192;-72
2023/03/11 11:10:56;;;;;;;6.73;1.63;;;;;;;;;;5064755;28;20185;-72
2023/03/11 11:13:24;;;;;;;4.10;0.93;;;;;;;;;;5062853;28;20680;-73
2023/03/11 11:15:54;;;;;;;3.57;0.60;;;;;;;;;;5063814;28;20197;-72
2023/03/11 11:18:41;;;;;;;6.43;0.70;;;;;;;;;;5063157;28;20185;-72
2023/03/11 11:21:12;;;;;;;1.90;0.70;;;;;;;;;;5063121;28;20194;-71
2023/03/11 11:23:42;;;;;;;4.50;0.57;;;;;;;;;;5065165;28;20257;-71
2023/03/11 11:26:21;;;;;;;2.20;0.63;;;;;;;;;;5064866;28;20185;-72
2023/03/11 11:29:06;;;;;;;4.47;0.70;;;;;;;;;;5065148;28;21139;-71
2023/03/11 11:31:31;;;;;;;5.97;0.60;;;;;;;;;;5062630;28;21218;-70
2023/03/11 11:33:57;;;;;;;4.60;0.90;;;;;;;;;;5063607;28;20225;-72
2023/03/11 11:36:28;;;;;;;8.87;1.00;;;;;;;;;;5060861;28;20186;-71
2023/03/11 11:38:54;;;;;;;3.07;0.53;;;;;;;;;;5063856;28;20207;-72
2023/03/11 11:41:23;;;;;;;6.53;0.73;;;;;;;;;;5062575;28;20272;-71
2023/03/11 11:43:55;;;;;;;7.47;0.70;;;;;;;;;;5062141;28;20188;-73
2023/03/11 11:46:38;;;;;;;10.53;1.20;;;;;;;;;;5062535;28;20701;-74
2023/03/11 11:49:21;;;;;;;5.50;0.90;;;;;;;;;;5062333;28;20467;-73
2023/03/11 11:52:02;;;;;;;4.17;0.83;;;;;;;;;;5063497;28;20199;-74
2023/03/11 11:54:37;;;;;;;6.23;0.70;;;;;;;;;;5037094;28;20600;-72
2023/03/11 11:57:14;;;;;;;5.53;0.80;;;;;;;;;;5050676;28;20730;-73
2023/03/11 11:59:41;;;;;;;2.60;0.60;;;;;;;;;;5044877;28;20216;-73
2023/03/11 12:02:34;;;;;;;4.60;0.83;;;;;;;;;;5049754;28;20230;-74
2023/03/11 12:05:09;;;;;;;10.13;0.90;;;;;;;;;;5052600;28;20195;-73
2023/03/11 12:07:59;;;;;;;6.83;0.93;;;;;;;;;;5063775;28;20287;-73
2023/03/11 12:10:57;;;;;;;4.13;0.63;;;;;;;;;;5067686;28;20177;-72
2023/03/11 12:13:29;;;;;;;3.10;0.70;;;;;;;;;;5066824;28;20200;-72
2023/03/11 12:16:13;;;;;;;5.97;0.77;;;;;;;;;;5062970;28;20173;-72
2023/03/11 12:18:47;;;;;;;6.50;0.90;;;;;;;;;;5065222;28;20189;-73
2023/03/11 12:21:26;;;;;;;3.33;0.60;;;;;;;;;;5064121;28;20192;-72
2023/03/11 12:24:10;;;;;;;7.30;1.40;;;;;;;;;;5065737;28;20200;-73
2023/03/11 12:26:39;;;;;;;5.17;0.80;;;;;;;;;;5065038;28;20255;-72
2023/03/11 12:29:23;;;;;;;5.90;0.97;;;;;;;;;;5060983;28;20252;-72
2023/03/11 12:31:50;;;;;;;4.23;0.70;;;;;;;;;;5062396;28;20204;-73
2023/03/11 12:34:19;;;;;;;5.23;0.67;;;;;;;;;;5053169;28;20225;-72
2023/03/11 12:36:47;;;;;;;4.40;0.77;;;;;;;;;;5057499;28;20243;-72
2023/03/11 12:39:33;;;;;;;2.33;0.40;;;;;;;;;;5051218;28;20633;-73
2023/03/11 12:42:10;;;;;;;8.90;0.87;;;;;;;;;;5059401;28;20254;-72
2023/03/11 12:44:37;;;;;;;5.70;0.70;;;;;;;;;;5062025;28;20199;-72
2023/03/11 12:47:17;;;;;;;7.93;0.40;;;;;;;;;;5061446;28;20596;-71
2023/03/11 12:49:49;;;;;;;5.47;0.40;;;;;;;;;;5062147;28;20532;-72
2023/03/11 12:52:21;;;;;;;4.67;0.73;;;;;;;;;;5053895;28;20201;-72
2023/03/11 12:54:48;;;;;;;4.67;0.77;;;;;;;;;;5051037;28;20197;-72
2023/03/11 12:57:17;;;;;;;6.63;0.70;;;;;;;;;;5054028;28;20185;-72
2023/03/11 12:59:58;;;;;;;3.23;0.40;;;;;;;;;;5053310;28;20208;-71
2023/03/11 13:03:06;;;;;;;3.60;0.50;;;;;;;;;;5054915;28;20189;-72
2023/03/11 13:05:59;;;;;;;6.53;0.60;;;;;;;;;;5047667;28;20185;-72
2023/03/11 13:08:41;;;;;;;4.50;0.57;;;;;;;;;;5050125;28;20185;-72
2023/03/11 13:11:28;;;;;;;4.00;0.70;;;;;;;;;;5051714;28;20185;-71
2023/03/11 13:14:10;;;;;;;4.27;0.53;;;;;;;;;;5050616;28;20233;-72
2023/03/11 13:16:37;;;;;;;4.60;0.40;;;;;;;;;;5058842;28;20189;-72
2023/03/11 13:19:25;;;;;;;4.40;0.63;;;;;;;;;;5054682;28;20561;-72
2023/03/11 13:21:51;;;;;;;2.33;0.60;;;;;;;;;;5053207;28;20217;-71
2023/03/11 13:24:24;;;;;;;1.30;0.30;;;;;;;;;;5061437;28;20227;-71
2023/03/11 13:26:58;;;;;;;3.87;0.50;;;;;;;;;;5058518;28;20201;-72
2023/03/11 13:29:35;;;;;;;3.20;0.30;;;;;;;;;;5056100;28;20216;-72
2023/03/11 13:32:24;;;;;;;2.37;0.30;;;;;;;;;;5061669;28;20197;-72
2023/03/11 13:35:09;;;;;;;1.07;0.40;;;;;;;;;;5056986;28;20228;-71
2023/03/11 13:37:56;;;;;;;2.60;0.50;;;;;;;;;;5060907;28;20210;-72
2023/03/11 13:40:43;;;;;;;3.13;0.53;;;;;;;;;;5054996;28;20209;-72
2023/03/11 13:43:16;;;;;;;5.57;0.90;;;;;;;;;;5055340;28;20194;-72
2023/03/11 13:45:49;;;;;;;2.87;0.80;;;;;;;;;;5067243;28;20189;-71
2023/03/11 13:48:30;;;;;;;1.57;0.90;;;;;;;;;;5056796;28;20247;-71
2023/03/11 13:51:14;;;;;;;2.87;0.30;;;;;;;;;;5059851;28;20557;-71
2023/03/11 13:53:44;;;;;;;1.93;0.57;;;;;;;;;;5055061;28;20185;-72
2023/03/11 13:56:20;;;;;;;2.97;0.57;;;;;;;;;;5059452;28;20192;-72
2023/03/11 13:58:46;;;;;;;2.40;0.50;;;;;;;;;;5063939;28;20249;-71
2023/03/11 14:01:15;;;;;;;1.43;0.30;;;;;;;;;;5051279;28;20234;-71
2023/03/11 14:03:43;;;;;;;1.30;0.33;;;;;;;;;;5053838;28;20264;-72
2023/03/11 14:06:15;;;;;;;3.30;0.30;;;;;;;;;;5048516;28;20274;-72
2023/03/11 14:08:41;;;;;;;2.50;0.40;;;;;;;;;;5064155;28;20525;-72
2023/03/11 14:11:07;;;;;;;1.30;0.50;;;;;;;;;;5044123;28;20687;-72
2023/03/11 14:13:38;;;;;;;1.90;0.30;;;;;;;;;;5057457;28;20185;-72
2023/03/11 14:16:19;;;;;;;0.70;0.30;;;;;;;;;;5053320;28;20181;-72
2023/03/11 14:18:47;;;;;;;2.83;0.43;;;;;;;;;;5050815;28;20672;-72
2023/03/11 14:21:16;;;;;;;3.27;0.87;;;;;;;;;;5063604;28;20188;-72
2023/03/11 14:23:47;;;;;;;3.00;0.40;;;;;;;;;;5057255;28;20263;-72
2023/03/11 14:26:22;;;;;;;6.10;2.43;;;;;;;;;;5055057;28;20679;-71
2023/03/11 14:28:53;;;;;;;4.90;1.63;;;;;;;;;;5052181;28;20188;-71
2023/03/11 14:31:31;;;;;;;2.73;0.50;;;;;;;;;;5049507;28;20665;-71
2023/03/11 14:34:08;;;;;;;3.80;0.50;;;;;;;;;;5053320;28;20221;-71
2023/03/11 14:36:44;;;;;;;4.37;2.10;;;;;;;;;;5048698;28;20535;-71
2023/03/11 14:39:34;;;;;;;2.47;1.10;;;;;;;;;;5054414;28;20239;-71
2023/03/11 14:42:21;;;;;;;3.40;0.63;;;;;;;;;;5065563;28;20199;-71
2023/03/11 14:45:03;;;;;;;3.47;0.60;;;;;;;;;;5064140;28;20197;-71
2023/03/11 14:47:50;;;;;;;3.57;0.73;;;;;;;;;;5065940;28;20181;-72
2023/03/11 14:50:19;;;;;;;1.47;0.60;;;;;;;;;;5067538;28;20192;-71
2023/03/11 14:53:16;;;;;;;2.47;0.77;;;;;;;;;;5063402;28;20242;-71
2023/03/11 14:55:57;;;;;;;3.63;0.60;;;;;;;;;;5047756;28;20181;-72
2023/03/11 14:58:47;;;;;;;2.63;0.70;;;;;;;;;;5063716;28;20195;-71
2023/03/11 15:01:18;;;;;;;5.87;0.60;;;;;;;;;;5046843;28;20254;-72